sensor_id;sensor_type;location;lat;lon;timestamp;temperature;humidity
8248;DHT22;4164;49.844;8.830;2022-07-19T00:01:49;19.30;99.90
8248;DHT22;4164;49.844;8.830;2022-07-19T00:04:14;19.20;99.90
8248;DHT22;4164;49.844;8.830;2022-07-19T00:06:40;19.20;99.90
8248;DHT22;4164;49.844;8.830;2022-07-19T00:09:05;19.10;99.90
8248;DHT22;4164;49.844;8.830;2022-07-19T00:11:32;19.00;99.90
8248;DHT22;4164;49.844;8.830;2022-07-19T00:13:57;18.90;99.90
8248;DHT22;4164;49.844;8.830;2022-07-19T00:16:23;18.90;99.90
8248;DHT22;4164;49.844;8.830;2022-07-19T00:18:49;18.90;99.90
8248;DHT22;4164;49.844;8.830;2022-07-19T00:21:15;19.00;99.90
8248;DHT22;4164;49.844;8.830;2022-07-19T00:23:40;18.80;99.90
8248;DHT22;4164;49.844;8.830;2022-07-19T00:26:06;18.60;99.90
8248;DHT22;4164;49.844;8.830;2022-07-19T00:28:32;18.50;99.90
8248;DHT22;4164;49.844;8.830;2022-07-19T00:30:57;18.60;99.90
8248;DHT22;4164;49.844;8.830;2022-07-19T00:33:24;18.50;99.90
8248;DHT22;4164;49.844;8.830;2022-07-19T00:35:49;18.30;99.90
8248;DHT22;4164;49.844;8.830;2022-07-19T00:38:15;18.20;99.90
8248;DHT22;4164;49.844;8.830;2022-07-19T00:40:42;18.30;99.90
8248;DHT22;4164;49.844;8.830;2022-07-19T00:43:09;18.30;99.90
8248;DHT22;4164;49.844;8.830;2022-07-19T00:45:34;18.30;99.90
8248;DHT22;4164;49.844;8.830;2022-07-19T00:48:00;18.20;99.90
8248;DHT22;4164;49.844;8.830;2022-07-19T00:50:26;18.30;99.90
8248;DHT22;4164;49.844;8.830;2022-07-19T00:52:54;18.30;99.90
8248;DHT22;4164;49.844;8.830;2022-07-19T00:55:21;18.20;99.90
8248;DHT22;4164;49.844;8.830;2022-07-19T00:57:47;18.20;99.90
8248;DHT22;4164;49.844;8.830;2022-07-19T01:00:14;18.20;99.90
8248;DHT22;4164;49.844;8.830;2022-07-19T01:02:41;18.30;99.90
8248;DHT22;4164;49.844;8.830;2022-07-19T01:05:08;18.30;99.90
8248;DHT22;4164;49.844;8.830;2022-07-19T01:07:34;18.30;99.90
8248;DHT22;4164;49.844;8.830;2022-07-19T01:10:01;18.30;99.90
8248;DHT22;4164;49.844;8.830;2022-07-19T01:12:27;18.10;99.90
8248;DHT22;4164;49.844;8.830;2022-07-19T01:14:57;18.10;99.90
8248;DHT22;4164;49.844;8.830;2022-07-19T01:17:23;18.00;99.90
8248;DHT22;4164;49.844;8.830;2022-07-19T01:19:49;17.90;99.90
8248;DHT22;4164;49.844;8.830;2022-07-19T01:22:14;17.90;99.90
8248;DHT22;4164;49.844;8.830;2022-07-19T01:24:40;17.80;99.90
8248;DHT22;4164;49.844;8.830;2022-07-19T01:27:06;17.70;99.90
8248;DHT22;4164;49.844;8.830;2022-07-19T01:29:33;17.60;99.90
8248;DHT22;4164;49.844;8.830;2022-07-19T01:32:02;17.50;99.90
8248;DHT22;4164;49.844;8.830;2022-07-19T01:34:27;17.40;99.90
8248;DHT22;4164;49.844;8.830;2022-07-19T01:36:53;17.30;99.90
8248;DHT22;4164;49.844;8.830;2022-07-19T01:39:18;17.30;99.90
8248;DHT22;4164;49.844;8.830;2022-07-19T01:41:44;17.40;99.90
8248;DHT22;4164;49.844;8.830;2022-07-19T01:44:09;17.40;99.90
8248;DHT22;4164;49.844;8.830;2022-07-19T01:46:35;17.40;99.90
8248;DHT22;4164;49.844;8.830;2022-07-19T01:49:00;17.30;99.90
8248;DHT22;4164;49.844;8.830;2022-07-19T01:51:26;17.30;99.90
8248;DHT22;4164;49.844;8.830;2022-07-19T01:53:51;17.30;99.90
8248;DHT22;4164;49.844;8.830;2022-07-19T01:56:17;17.20;99.90
8248;DHT22;4164;49.844;8.830;2022-07-19T01:58:43;17.10;99.90
8248;DHT22;4164;49.844;8.830;2022-07-19T02:01:08;17.20;99.90
8248;DHT22;4164;49.844;8.830;2022-07-19T02:03:34;17.10;99.90
8248;DHT22;4164;49.844;8.830;2022-07-19T02:05:59;17.00;99.90
8248;DHT22;4164;49.844;8.830;2022-07-19T02:08:25;17.00;99.90
8248;DHT22;4164;49.844;8.830;2022-07-19T02:10:51;17.00;99.90
8248;DHT22;4164;49.844;8.830;2022-07-19T02:13:16;17.00;99.90
8248;DHT22;4164;49.844;8.830;2022-07-19T02:15:42;17.00;99.90
8248;DHT22;4164;49.844;8.830;2022-07-19T02:18:07;17.10;99.90
8248;DHT22;4164;49.844;8.830;2022-07-19T02:20:33;17.10;99.90
8248;DHT22;4164;49.844;8.830;2022-07-19T02:22:59;17.00;99.90
8248;DHT22;4164;49.844;8.830;2022-07-19T02:25:24;16.80;99.90
8248;DHT22;4164;49.844;8.830;2022-07-19T02:27:50;16.80;99.90
8248;DHT22;4164;49.844;8.830;2022-07-19T02:30:16;16.70;99.90
8248;DHT22;4164;49.844;8.830;2022-07-19T02:32:42;16.70;99.90
8248;DHT22;4164;49.844;8.830;2022-07-19T02:35:09;16.50;99.90
8248;DHT22;4164;49.844;8.830;2022-07-19T02:37:37;16.40;99.90
8248;DHT22;4164;49.844;8.830;2022-07-19T02:40:03;16.30;99.90
8248;DHT22;4164;49.844;8.830;2022-07-19T02:42:29;16.20;99.90
8248;DHT22;4164;49.844;8.830;2022-07-19T02:44:54;16.30;99.90
8248;DHT22;4164;49.844;8.830;2022-07-19T02:47:20;16.30;99.90
8248;DHT22;4164;49.844;8.830;2022-07-19T02:49:46;16.30;99.90
8248;DHT22;4164;49.844;8.830;2022-07-19T02:52:11;16.40;99.90
8248;DHT22;4164;49.844;8.830;2022-07-19T02:54:38;16.30;99.90
8248;DHT22;4164;49.844;8.830;2022-07-19T02:57:03;16.20;99.90
8248;DHT22;4164;49.844;8.830;2022-07-19T02:59:29;16.10;99.90
8248;DHT22;4164;49.844;8.830;2022-07-19T03:01:54;16.10;99.90
8248;DHT22;4164;49.844;8.830;2022-07-19T03:04:20;16.20;99.90
8248;DHT22;4164;49.844;8.830;2022-07-19T03:06:45;16.20;99.90
8248;DHT22;4164;49.844;8.830;2022-07-19T03:09:11;16.10;99.90
8248;DHT22;4164;49.844;8.830;2022-07-19T03:11:37;16.10;99.90
8248;DHT22;4164;49.844;8.830;2022-07-19T03:14:03;16.20;99.90
8248;DHT22;4164;49.844;8.830;2022-07-19T03:16:28;16.10;99.90
8248;DHT22;4164;49.844;8.830;2022-07-19T03:18:54;16.10;99.90
8248;DHT22;4164;49.844;8.830;2022-07-19T03:21:19;16.20;99.90
8248;DHT22;4164;49.844;8.830;2022-07-19T03:23:45;16.10;99.90
8248;DHT22;4164;49.844;8.830;2022-07-19T03:26:11;16.00;99.90
8248;DHT22;4164;49.844;8.830;2022-07-19T03:28:37;15.90;99.90
8248;DHT22;4164;49.844;8.830;2022-07-19T03:31:02;15.90;99.90
8248;DHT22;4164;49.844;8.830;2022-07-19T03:33:28;15.90;99.90
8248;DHT22;4164;49.844;8.830;2022-07-19T03:35:54;15.90;99.90
8248;DHT22;4164;49.844;8.830;2022-07-19T03:38:19;15.90;99.90
8248;DHT22;4164;49.844;8.830;2022-07-19T03:40:46;15.90;99.90
8248;DHT22;4164;49.844;8.830;2022-07-19T03:43:18;15.70;99.90
8248;DHT22;4164;49.844;8.830;2022-07-19T03:45:44;15.60;99.90
8248;DHT22;4164;49.844;8.830;2022-07-19T03:48:10;15.60;99.90
8248;DHT22;4164;49.844;8.830;2022-07-19T03:50:36;15.60;99.90
8248;DHT22;4164;49.844;8.830;2022-07-19T03:53:02;15.70;99.90
8248;DHT22;4164;49.844;8.830;2022-07-19T03:55:27;15.60;99.90
8248;DHT22;4164;49.844;8.830;2022-07-19T03:57:53;15.50;99.90
8248;DHT22;4164;49.844;8.830;2022-07-19T04:00:18;15.70;99.90
8248;DHT22;4164;49.844;8.830;2022-07-19T04:02:44;15.70;99.90
8248;DHT22;4164;49.844;8.830;2022-07-19T04:05:09;15.80;99.90
8248;DHT22;4164;49.844;8.830;2022-07-19T04:07:35;15.70;99.90
8248;DHT22;4164;49.844;8.830;2022-07-19T04:10:01;15.60;99.90
8248;DHT22;4164;49.844;8.830;2022-07-19T04:12:26;15.50;99.90
8248;DHT22;4164;49.844;8.830;2022-07-19T04:14:52;15.50;99.90
8248;DHT22;4164;49.844;8.830;2022-07-19T04:17:17;15.60;99.90
8248;DHT22;4164;49.844;8.830;2022-07-19T04:19:43;15.80;99.90
8248;DHT22;4164;49.844;8.830;2022-07-19T04:22:09;15.90;99.90
8248;DHT22;4164;49.844;8.830;2022-07-19T04:24:34;16.00;99.90
8248;DHT22;4164;49.844;8.830;2022-07-19T04:27:00;16.00;99.90
8248;DHT22;4164;49.844;8.830;2022-07-19T04:29:25;16.00;99.90
8248;DHT22;4164;49.844;8.830;2022-07-19T04:31:51;16.10;99.90
8248;DHT22;4164;49.844;8.830;2022-07-19T04:34:16;16.10;99.90
8248;DHT22;4164;49.844;8.830;2022-07-19T04:36:42;16.20;99.90
8248;DHT22;4164;49.844;8.830;2022-07-19T04:39:08;16.20;99.90
8248;DHT22;4164;49.844;8.830;2022-07-19T04:41:34;16.20;99.90
8248;DHT22;4164;49.844;8.830;2022-07-19T04:43:59;16.30;99.90
8248;DHT22;4164;49.844;8.830;2022-07-19T04:46:25;16.30;99.90
8248;DHT22;4164;49.844;8.830;2022-07-19T04:48:51;16.20;99.90
8248;DHT22;4164;49.844;8.830;2022-07-19T04:51:16;16.20;99.90
8248;DHT22;4164;49.844;8.830;2022-07-19T04:53:42;16.10;99.90
8248;DHT22;4164;49.844;8.830;2022-07-19T04:56:07;16.20;99.90
8248;DHT22;4164;49.844;8.830;2022-07-19T04:58:33;16.40;99.90
8248;DHT22;4164;49.844;8.830;2022-07-19T05:00:58;16.60;99.90
8248;DHT22;4164;49.844;8.830;2022-07-19T05:03:24;16.80;99.90
8248;DHT22;4164;49.844;8.830;2022-07-19T05:05:49;17.10;99.90
8248;DHT22;4164;49.844;8.830;2022-07-19T05:08:15;17.20;99.90
8248;DHT22;4164;49.844;8.830;2022-07-19T05:10:40;17.20;99.90
8248;DHT22;4164;49.844;8.830;2022-07-19T05:13:06;17.30;99.90
8248;DHT22;4164;49.844;8.830;2022-07-19T05:15:31;17.60;99.90
8248;DHT22;4164;49.844;8.830;2022-07-19T05:17:57;17.90;99.90
8248;DHT22;4164;49.844;8.830;2022-07-19T05:20:22;17.90;99.90
8248;DHT22;4164;49.844;8.830;2022-07-19T05:22:48;18.00;99.90
8248;DHT22;4164;49.844;8.830;2022-07-19T05:25:15;18.00;99.90
8248;DHT22;4164;49.844;8.830;2022-07-19T05:27:40;18.10;99.90
8248;DHT22;4164;49.844;8.830;2022-07-19T05:30:06;18.20;99.90
8248;DHT22;4164;49.844;8.830;2022-07-19T05:32:32;18.20;99.90
8248;DHT22;4164;49.844;8.830;2022-07-19T05:34:58;18.40;99.90
8248;DHT22;4164;49.844;8.830;2022-07-19T05:37:23;18.50;99.90
8248;DHT22;4164;49.844;8.830;2022-07-19T05:39:49;18.60;99.90
8248;DHT22;4164;49.844;8.830;2022-07-19T05:42:14;18.80;99.90
8248;DHT22;4164;49.844;8.830;2022-07-19T05:44:40;18.80;99.90
8248;DHT22;4164;49.844;8.830;2022-07-19T05:47:05;19.00;99.90
8248;DHT22;4164;49.844;8.830;2022-07-19T05:49:31;19.10;99.90
8248;DHT22;4164;49.844;8.830;2022-07-19T05:51:56;19.20;99.90
8248;DHT22;4164;49.844;8.830;2022-07-19T05:54:22;19.40;99.90
8248;DHT22;4164;49.844;8.830;2022-07-19T05:56:48;19.60;99.90
8248;DHT22;4164;49.844;8.830;2022-07-19T05:59:16;19.70;99.90
8248;DHT22;4164;49.844;8.830;2022-07-19T06:01:46;19.80;99.90
8248;DHT22;4164;49.844;8.830;2022-07-19T06:04:12;19.90;99.90
8248;DHT22;4164;49.844;8.830;2022-07-19T06:06:37;20.00;99.90
8248;DHT22;4164;49.844;8.830;2022-07-19T06:09:03;20.10;99.90
8248;DHT22;4164;49.844;8.830;2022-07-19T06:11:31;20.30;99.90
8248;DHT22;4164;49.844;8.830;2022-07-19T06:13:57;20.50;99.90
8248;DHT22;4164;49.844;8.830;2022-07-19T06:16:23;20.60;99.90
8248;DHT22;4164;49.844;8.830;2022-07-19T06:18:49;20.70;99.90
8248;DHT22;4164;49.844;8.830;2022-07-19T06:21:16;20.90;99.90
8248;DHT22;4164;49.844;8.830;2022-07-19T06:23:43;21.00;99.90
8248;DHT22;4164;49.844;8.830;2022-07-19T06:26:10;21.20;99.90
8248;DHT22;4164;49.844;8.830;2022-07-19T06:28:36;21.50;99.90
8248;DHT22;4164;49.844;8.830;2022-07-19T06:31:02;21.80;99.90
8248;DHT22;4164;49.844;8.830;2022-07-19T06:33:27;21.90;99.90
8248;DHT22;4164;49.844;8.830;2022-07-19T06:35:53;22.00;99.90
8248;DHT22;4164;49.844;8.830;2022-07-19T06:38:19;22.20;99.90
8248;DHT22;4164;49.844;8.830;2022-07-19T06:40:44;22.20;99.90
8248;DHT22;4164;49.844;8.830;2022-07-19T06:43:10;22.30;99.90
8248;DHT22;4164;49.844;8.830;2022-07-19T06:45:36;22.50;99.90
8248;DHT22;4164;49.844;8.830;2022-07-19T06:48:02;22.70;99.90
8248;DHT22;4164;49.844;8.830;2022-07-19T06:50:28;23.00;99.90
8248;DHT22;4164;49.844;8.830;2022-07-19T06:52:53;23.20;99.90
8248;DHT22;4164;49.844;8.830;2022-07-19T06:55:19;23.60;99.90
8248;DHT22;4164;49.844;8.830;2022-07-19T06:57:45;23.40;99.90
8248;DHT22;4164;49.844;8.830;2022-07-19T07:00:11;23.60;99.90
8248;DHT22;4164;49.844;8.830;2022-07-19T07:02:37;23.80;99.90
8248;DHT22;4164;49.844;8.830;2022-07-19T07:05:04;24.10;99.90
8248;DHT22;4164;49.844;8.830;2022-07-19T07:07:30;24.30;99.90
8248;DHT22;4164;49.844;8.830;2022-07-19T07:09:56;24.50;99.90
8248;DHT22;4164;49.844;8.830;2022-07-19T07:12:21;24.60;99.90
8248;DHT22;4164;49.844;8.830;2022-07-19T07:14:47;24.80;99.90
8248;DHT22;4164;49.844;8.830;2022-07-19T07:17:13;24.80;99.90
8248;DHT22;4164;49.844;8.830;2022-07-19T07:19:38;24.80;99.90
8248;DHT22;4164;49.844;8.830;2022-07-19T07:22:04;24.90;99.60
8248;DHT22;4164;49.844;8.830;2022-07-19T07:24:29;25.10;99.20
8248;DHT22;4164;49.844;8.830;2022-07-19T07:26:55;25.20;98.40
8248;DHT22;4164;49.844;8.830;2022-07-19T07:29:21;25.40;98.40
8248;DHT22;4164;49.844;8.830;2022-07-19T07:31:46;25.70;95.90
8248;DHT22;4164;49.844;8.830;2022-07-19T07:34:12;26.10;94.90
8248;DHT22;4164;49.844;8.830;2022-07-19T07:36:37;26.40;94.50
8248;DHT22;4164;49.844;8.830;2022-07-19T07:39:03;26.60;91.00
8248;DHT22;4164;49.844;8.830;2022-07-19T07:41:28;26.90;89.00
8248;DHT22;4164;49.844;8.830;2022-07-19T07:43:54;27.10;88.00
8248;DHT22;4164;49.844;8.830;2022-07-19T07:46:20;27.30;87.90
8248;DHT22;4164;49.844;8.830;2022-07-19T07:48:45;27.60;84.70
8248;DHT22;4164;49.844;8.830;2022-07-19T07:51:11;27.70;83.00
8248;DHT22;4164;49.844;8.830;2022-07-19T07:53:37;27.90;80.50
8248;DHT22;4164;49.844;8.830;2022-07-19T07:56:03;28.00;77.70
8248;DHT22;4164;49.844;8.830;2022-07-19T07:58:28;28.10;74.90
8248;DHT22;4164;49.844;8.830;2022-07-19T08:00:54;28.30;74.00
8248;DHT22;4164;49.844;8.830;2022-07-19T08:03:19;28.50;75.30
8248;DHT22;4164;49.844;8.830;2022-07-19T08:05:45;28.70;74.20
8248;DHT22;4164;49.844;8.830;2022-07-19T08:08:13;28.90;69.60
8248;DHT22;4164;49.844;8.830;2022-07-19T08:10:39;28.90;68.00
8248;DHT22;4164;49.844;8.830;2022-07-19T08:13:05;28.90;67.40
8248;DHT22;4164;49.844;8.830;2022-07-19T08:15:30;29.00;66.30
8248;DHT22;4164;49.844;8.830;2022-07-19T08:17:56;29.10;68.40
8248;DHT22;4164;49.844;8.830;2022-07-19T08:20:22;29.30;67.30
8248;DHT22;4164;49.844;8.830;2022-07-19T08:22:47;29.50;68.20
8248;DHT22;4164;49.844;8.830;2022-07-19T08:25:13;29.70;63.40
8248;DHT22;4164;49.844;8.830;2022-07-19T08:27:42;29.80;62.00
8248;DHT22;4164;49.844;8.830;2022-07-19T08:30:09;29.80;62.30
8248;DHT22;4164;49.844;8.830;2022-07-19T08:32:34;29.90;63.00
8248;DHT22;4164;49.844;8.830;2022-07-19T08:35:00;29.90;61.80
8248;DHT22;4164;49.844;8.830;2022-07-19T08:37:25;29.90;61.70
8248;DHT22;4164;49.844;8.830;2022-07-19T08:39:51;30.20;62.00
8248;DHT22;4164;49.844;8.830;2022-07-19T08:42:19;30.30;60.30
8248;DHT22;4164;49.844;8.830;2022-07-19T08:44:48;30.50;61.00
8248;DHT22;4164;49.844;8.830;2022-07-19T08:47:17;30.50;57.90
8248;DHT22;4164;49.844;8.830;2022-07-19T08:49:43;30.40;57.70
8248;DHT22;4164;49.844;8.830;2022-07-19T08:52:09;30.50;58.30
8248;DHT22;4164;49.844;8.830;2022-07-19T08:54:35;30.80;55.90
8248;DHT22;4164;49.844;8.830;2022-07-19T08:57:00;30.80;56.40
8248;DHT22;4164;49.844;8.830;2022-07-19T08:59:44;31.10;57.10
8248;DHT22;4164;49.844;8.830;2022-07-19T09:02:10;31.30;55.70
8248;DHT22;4164;49.844;8.830;2022-07-19T09:04:35;31.50;55.80
8248;DHT22;4164;49.844;8.830;2022-07-19T09:07:01;31.50;55.00
8248;DHT22;4164;49.844;8.830;2022-07-19T09:09:30;31.60;52.90
8248;DHT22;4164;49.844;8.830;2022-07-19T09:11:58;31.60;51.00
8248;DHT22;4164;49.844;8.830;2022-07-19T09:14:27;31.90;51.90
8248;DHT22;4164;49.844;8.830;2022-07-19T09:19:19;32.30;52.20
8248;DHT22;4164;49.844;8.830;2022-07-19T09:22:05;32.30;49.20
8248;DHT22;4164;49.844;8.830;2022-07-19T09:24:35;32.10;48.10
8248;DHT22;4164;49.844;8.830;2022-07-19T09:27:10;32.00;49.70
8248;DHT22;4164;49.844;8.830;2022-07-19T09:29:38;32.50;51.90
8248;DHT22;4164;49.844;8.830;2022-07-19T09:34:32;32.90;48.80
8248;DHT22;4164;49.844;8.830;2022-07-19T09:37:27;33.00;47.30
8248;DHT22;4164;49.844;8.830;2022-07-19T09:39:57;33.30;47.20
8248;DHT22;4164;49.844;8.830;2022-07-19T09:42:38;33.50;45.10
8248;DHT22;4164;49.844;8.830;2022-07-19T09:45:07;33.70;46.60
8248;DHT22;4164;49.844;8.830;2022-07-19T09:47:40;33.80;44.00
8248;DHT22;4164;49.844;8.830;2022-07-19T09:50:17;33.70;43.00
8248;DHT22;4164;49.844;8.830;2022-07-19T09:52:45;34.00;43.10
8248;DHT22;4164;49.844;8.830;2022-07-19T09:55:11;34.20;42.50
8248;DHT22;4164;49.844;8.830;2022-07-19T09:57:43;34.40;42.60
8248;DHT22;4164;49.844;8.830;2022-07-19T10:00:14;34.30;41.30
8248;DHT22;4164;49.844;8.830;2022-07-19T10:02:42;34.30;42.80
8248;DHT22;4164;49.844;8.830;2022-07-19T10:05:10;34.50;42.30
8248;DHT22;4164;49.844;8.830;2022-07-19T10:07:37;34.30;43.20
8248;DHT22;4164;49.844;8.830;2022-07-19T10:10:08;34.50;42.40
8248;DHT22;4164;49.844;8.830;2022-07-19T10:12:36;34.70;42.20
8248;DHT22;4164;49.844;8.830;2022-07-19T10:15:04;34.90;42.10
8248;DHT22;4164;49.844;8.830;2022-07-19T10:17:37;35.10;41.80
8248;DHT22;4164;49.844;8.830;2022-07-19T10:20:05;35.10;42.10
8248;DHT22;4164;49.844;8.830;2022-07-19T10:22:32;35.40;42.00
8248;DHT22;4164;49.844;8.830;2022-07-19T10:32:31;35.70;40.80
8248;DHT22;4164;49.844;8.830;2022-07-19T10:40:48;36.00;39.80
8248;DHT22;4164;49.844;8.830;2022-07-19T10:43:15;36.20;39.20
8248;DHT22;4164;49.844;8.830;2022-07-19T10:51:09;36.70;36.40
8248;DHT22;4164;49.844;8.830;2022-07-19T10:56:16;36.60;37.40
8248;DHT22;4164;49.844;8.830;2022-07-19T10:58:59;36.60;36.10
8248;DHT22;4164;49.844;8.830;2022-07-19T11:01:26;36.50;36.90
8248;DHT22;4164;49.844;8.830;2022-07-19T11:03:54;36.80;36.90
8248;DHT22;4164;49.844;8.830;2022-07-19T11:06:27;37.00;36.90
8248;DHT22;4164;49.844;8.830;2022-07-19T11:08:55;37.20;35.70
8248;DHT22;4164;49.844;8.830;2022-07-19T11:11:22;37.40;35.90
8248;DHT22;4164;49.844;8.830;2022-07-19T11:13:51;37.40;35.20
8248;DHT22;4164;49.844;8.830;2022-07-19T11:16:18;37.30;34.70
8248;DHT22;4164;49.844;8.830;2022-07-19T11:18:45;37.30;36.10
8248;DHT22;4164;49.844;8.830;2022-07-19T11:21:12;37.40;36.90
8248;DHT22;4164;49.844;8.830;2022-07-19T11:23:38;37.70;36.00
8248;DHT22;4164;49.844;8.830;2022-07-19T11:26:11;37.80;36.80
8248;DHT22;4164;49.844;8.830;2022-07-19T11:28:38;37.80;36.00
8248;DHT22;4164;49.844;8.830;2022-07-19T11:31:16;37.40;35.00
8248;DHT22;4164;49.844;8.830;2022-07-19T11:33:43;37.40;34.70
8248;DHT22;4164;49.844;8.830;2022-07-19T11:36:09;37.70;35.60
8248;DHT22;4164;49.844;8.830;2022-07-19T11:38:40;38.40;34.70
8248;DHT22;4164;49.844;8.830;2022-07-19T11:43:41;42.10;32.00
8248;DHT22;4164;49.844;8.830;2022-07-19T11:46:07;42.80;30.00
8248;DHT22;4164;49.844;8.830;2022-07-19T11:48:33;43.80;29.20
8248;DHT22;4164;49.844;8.830;2022-07-19T11:51:08;44.60;28.30
8248;DHT22;4164;49.844;8.830;2022-07-19T11:53:38;46.10;28.50
8248;DHT22;4164;49.844;8.830;2022-07-19T11:56:06;46.10;27.30
8248;DHT22;4164;49.844;8.830;2022-07-19T11:58:40;47.20;27.10
8248;DHT22;4164;49.844;8.830;2022-07-19T12:01:07;46.90;26.90
8248;DHT22;4164;49.844;8.830;2022-07-19T12:03:33;47.40;27.40
8248;DHT22;4164;49.844;8.830;2022-07-19T12:06:02;48.30;26.20
8248;DHT22;4164;49.844;8.830;2022-07-19T12:11:01;48.40;26.30
8248;DHT22;4164;49.844;8.830;2022-07-19T12:13:32;48.20;25.60
8248;DHT22;4164;49.844;8.830;2022-07-19T12:16:00;48.20;24.50
8248;DHT22;4164;49.844;8.830;2022-07-19T12:18:56;49.30;24.70
8248;DHT22;4164;49.844;8.830;2022-07-19T12:26:39;48.60;24.20
8248;DHT22;4164;49.844;8.830;2022-07-19T12:29:36;48.80;24.50
8248;DHT22;4164;49.844;8.830;2022-07-19T12:32:09;49.30;24.80
8248;DHT22;4164;49.844;8.830;2022-07-19T12:34:49;49.10;24.10
8248;DHT22;4164;49.844;8.830;2022-07-19T12:37:28;49.40;23.70
8248;DHT22;4164;49.844;8.830;2022-07-19T12:45:06;49.60;23.80
8248;DHT22;4164;49.844;8.830;2022-07-19T12:47:32;50.30;23.20
8248;DHT22;4164;49.844;8.830;2022-07-19T12:49:58;49.90;23.90
8248;DHT22;4164;49.844;8.830;2022-07-19T12:52:23;49.90;23.10
8248;DHT22;4164;49.844;8.830;2022-07-19T12:54:49;49.50;23.30
8248;DHT22;4164;49.844;8.830;2022-07-19T12:57:15;50.70;23.50
8248;DHT22;4164;49.844;8.830;2022-07-19T12:59:40;50.50;22.50
8248;DHT22;4164;49.844;8.830;2022-07-19T13:02:08;51.00;22.50
8248;DHT22;4164;49.844;8.830;2022-07-19T13:04:34;51.00;22.90
8248;DHT22;4164;49.844;8.830;2022-07-19T13:07:00;50.90;21.90
8248;DHT22;4164;49.844;8.830;2022-07-19T13:09:25;50.90;22.20
8248;DHT22;4164;49.844;8.830;2022-07-19T13:11:51;51.40;22.40
8248;DHT22;4164;49.844;8.830;2022-07-19T13:14:16;51.90;21.50
8248;DHT22;4164;49.844;8.830;2022-07-19T13:16:42;51.10;22.10
8248;DHT22;4164;49.844;8.830;2022-07-19T13:19:07;51.40;22.00
8248;DHT22;4164;49.844;8.830;2022-07-19T13:21:33;50.30;21.90
8248;DHT22;4164;49.844;8.830;2022-07-19T13:23:59;50.40;21.50
8248;DHT22;4164;49.844;8.830;2022-07-19T13:26:25;50.40;21.80
8248;DHT22;4164;49.844;8.830;2022-07-19T13:28:50;49.30;22.20
8248;DHT22;4164;49.844;8.830;2022-07-19T13:31:16;48.90;23.10
8248;DHT22;4164;49.844;8.830;2022-07-19T13:33:41;48.30;22.40
8248;DHT22;4164;49.844;8.830;2022-07-19T13:36:07;48.20;23.60
8248;DHT22;4164;49.844;8.830;2022-07-19T13:38:33;48.40;23.00
8248;DHT22;4164;49.844;8.830;2022-07-19T13:40:58;48.70;22.50
8248;DHT22;4164;49.844;8.830;2022-07-19T13:43:24;49.10;22.80
8248;DHT22;4164;49.844;8.830;2022-07-19T13:45:50;48.20;23.00
8248;DHT22;4164;49.844;8.830;2022-07-19T13:48:16;48.20;22.90
8248;DHT22;4164;49.844;8.830;2022-07-19T13:50:41;48.10;22.20
8248;DHT22;4164;49.844;8.830;2022-07-19T13:53:07;48.60;22.70
8248;DHT22;4164;49.844;8.830;2022-07-19T13:55:33;48.40;22.90
8248;DHT22;4164;49.844;8.830;2022-07-19T13:57:58;49.30;22.90
8248;DHT22;4164;49.844;8.830;2022-07-19T14:00:24;50.10;22.90
8248;DHT22;4164;49.844;8.830;2022-07-19T14:02:50;49.90;22.60
8248;DHT22;4164;49.844;8.830;2022-07-19T14:05:15;51.00;21.50
8248;DHT22;4164;49.844;8.830;2022-07-19T14:07:41;50.20;21.50
8248;DHT22;4164;49.844;8.830;2022-07-19T15:01:17;48.20;21.80
8248;DHT22;4164;49.844;8.830;2022-07-19T15:03:42;48.60;22.40
8248;DHT22;4164;49.844;8.830;2022-07-19T15:06:08;48.30;22.50
8248;DHT22;4164;49.844;8.830;2022-07-19T15:08:33;46.60;22.30
8248;DHT22;4164;49.844;8.830;2022-07-19T15:10:59;44.90;23.00
8248;DHT22;4164;49.844;8.830;2022-07-19T15:13:24;43.50;24.00
8248;DHT22;4164;49.844;8.830;2022-07-19T15:15:50;41.60;24.80
8248;DHT22;4164;49.844;8.830;2022-07-19T15:18:17;40.70;25.50
8248;DHT22;4164;49.844;8.830;2022-07-19T15:20:42;40.30;24.70
8248;DHT22;4164;49.844;8.830;2022-07-19T15:23:10;39.70;26.00
8248;DHT22;4164;49.844;8.830;2022-07-19T15:25:35;39.40;26.70
8248;DHT22;4164;49.844;8.830;2022-07-19T15:28:01;39.10;26.20
8248;DHT22;4164;49.844;8.830;2022-07-19T15:30:26;38.90;26.70
8248;DHT22;4164;49.844;8.830;2022-07-19T15:32:52;38.70;27.30
8248;DHT22;4164;49.844;8.830;2022-07-19T15:35:17;38.60;27.20
8248;DHT22;4164;49.844;8.830;2022-07-19T15:37:43;38.30;26.60
8248;DHT22;4164;49.844;8.830;2022-07-19T15:40:09;38.10;27.10
8248;DHT22;4164;49.844;8.830;2022-07-19T15:42:45;37.90;27.20
8248;DHT22;4164;49.844;8.830;2022-07-19T15:45:12;37.80;27.40
8248;DHT22;4164;49.844;8.830;2022-07-19T15:47:37;37.80;27.60
8248;DHT22;4164;49.844;8.830;2022-07-19T15:50:09;37.80;27.70
8248;DHT22;4164;49.844;8.830;2022-07-19T15:52:38;37.70;27.40
8248;DHT22;4164;49.844;8.830;2022-07-19T15:55:05;37.80;27.60
8248;DHT22;4164;49.844;8.830;2022-07-19T15:57:31;37.80;27.60
8248;DHT22;4164;49.844;8.830;2022-07-19T15:59:57;37.60;27.70
8248;DHT22;4164;49.844;8.830;2022-07-19T16:02:22;37.50;27.30
8248;DHT22;4164;49.844;8.830;2022-07-19T16:04:50;37.40;27.90
8248;DHT22;4164;49.844;8.830;2022-07-19T16:07:16;37.40;27.30
8248;DHT22;4164;49.844;8.830;2022-07-19T16:09:41;37.30;28.30
8248;DHT22;4164;49.844;8.830;2022-07-19T16:12:07;37.20;28.70
8248;DHT22;4164;49.844;8.830;2022-07-19T16:14:34;37.10;29.10
8248;DHT22;4164;49.844;8.830;2022-07-19T16:17:00;37.00;28.70
8248;DHT22;4164;49.844;8.830;2022-07-19T16:19:26;37.00;28.90
8248;DHT22;4164;49.844;8.830;2022-07-19T16:21:51;37.00;28.80
8248;DHT22;4164;49.844;8.830;2022-07-19T16:24:17;36.90;29.10
8248;DHT22;4164;49.844;8.830;2022-07-19T16:26:42;37.00;29.40
8248;DHT22;4164;49.844;8.830;2022-07-19T16:29:08;37.00;29.40
8248;DHT22;4164;49.844;8.830;2022-07-19T16:31:35;36.90;29.00
8248;DHT22;4164;49.844;8.830;2022-07-19T16:34:01;36.90;28.60
8248;DHT22;4164;49.844;8.830;2022-07-19T16:36:26;36.70;29.20
8248;DHT22;4164;49.844;8.830;2022-07-19T16:38:52;36.50;28.60
8248;DHT22;4164;49.844;8.830;2022-07-19T16:41:18;36.50;29.00
8248;DHT22;4164;49.844;8.830;2022-07-19T16:43:43;36.60;28.80
8248;DHT22;4164;49.844;8.830;2022-07-19T16:46:09;36.50;29.00
8248;DHT22;4164;49.844;8.830;2022-07-19T16:48:34;36.50;29.00
8248;DHT22;4164;49.844;8.830;2022-07-19T16:51:00;36.50;28.60
8248;DHT22;4164;49.844;8.830;2022-07-19T16:53:25;36.40;29.30
8248;DHT22;4164;49.844;8.830;2022-07-19T16:55:51;36.30;29.90
8248;DHT22;4164;49.844;8.830;2022-07-19T16:58:16;36.30;29.50
8248;DHT22;4164;49.844;8.830;2022-07-19T17:00:42;36.20;29.80
8248;DHT22;4164;49.844;8.830;2022-07-19T17:03:07;36.30;29.60
8248;DHT22;4164;49.844;8.830;2022-07-19T17:05:33;36.20;29.20
8248;DHT22;4164;49.844;8.830;2022-07-19T17:07:59;36.10;29.20
8248;DHT22;4164;49.844;8.830;2022-07-19T17:10:24;36.00;29.70
8248;DHT22;4164;49.844;8.830;2022-07-19T17:12:51;35.90;28.90
8248;DHT22;4164;49.844;8.830;2022-07-19T17:15:17;35.90;29.00
8248;DHT22;4164;49.844;8.830;2022-07-19T17:17:43;35.90;29.10
8248;DHT22;4164;49.844;8.830;2022-07-19T17:20:11;35.90;29.60
8248;DHT22;4164;49.844;8.830;2022-07-19T17:22:37;35.80;29.90
8248;DHT22;4164;49.844;8.830;2022-07-19T17:25:05;35.70;30.10
8248;DHT22;4164;49.844;8.830;2022-07-19T17:27:31;35.60;30.00
8248;DHT22;4164;49.844;8.830;2022-07-19T17:29:57;35.50;29.90
8248;DHT22;4164;49.844;8.830;2022-07-19T17:32:22;35.30;30.40